Time;durP1;ratioP1;P1;durP2;ratioP2;P2;SDS_P1;SDS_P2;PMS_P1;PMS_P2;Temp;Humidity;BMP_temperature;BMP_pressure;BME280_temperature;BME280_humidity;BME280_pressure;Samples;Min_cycle;Max_cycle;Signal;HPM_P1;HPM_P2
2023/10/08 00:02:22;;;;;;;3.57;1.03;;;;;;;12.27;100.00;101321.38;5073495;28;20925;-75
2023/10/08 00:04:50;;;;;;;3.10;0.63;;;;;;;12.23;100.00;101333.09;5073406;28;20512;-75
2023/10/08 00:07:21;;;;;;;3.20;2.10;;;;;;;12.20;100.00;101312.75;5086858;22;20901;-72
2023/10/08 00:09:48;;;;;;;250.10;22.90;;;;;;;12.16;100.00;101309.03;5073745;28;20480;-72
2023/10/08 00:12:17;;;;;;;6.80;0.40;;;;;;;12.20;100.00;101323.63;5073928;28;20541;-72
2023/10/08 00:14:44;;;;;;;4.30;0.50;;;;;;;12.24;100.00;101326.56;5073958;28;20437;-72
2023/10/08 00:17:12;;;;;;;53.90;1.27;;;;;;;12.17;100.00;101321.50;5073764;28;20861;-70
2023/10/08 00:19:39;;;;;;;131.07;12.37;;;;;;;12.12;100.00;101324.28;5073173;28;20433;-71
2023/10/08 00:22:09;;;;;;;1.90;0.40;;;;;;;12.23;100.00;101327.69;5073172;28;20445;-70
2023/10/08 00:24:40;;;;;;;2.47;0.50;;;;;;;12.22;100.00;101318.72;5073734;28;20448;-70
2023/10/08 00:27:07;;;;;;;1.80;0.40;;;;;;;12.20;100.00;101320.91;5073283;28;20559;-69
2023/10/08 00:29:39;;;;;;;2.07;0.60;;;;;;;12.19;100.00;101324.75;5072985;28;20580;-69
2023/10/08 00:32:11;;;;;;;2.00;0.43;;;;;;;12.21;100.00;101340.72;5072812;28;20517;-69
2023/10/08 00:34:41;;;;;;;3.70;0.70;;;;;;;12.10;100.00;101348.22;5074981;28;20451;-70
2023/10/08 00:37:09;;;;;;;2.10;0.50;;;;;;;12.07;100.00;101351.50;5076940;28;20456;-71
2023/10/08 00:39:37;;;;;;;1.80;0.40;;;;;;;12.12;100.00;101360.38;5076776;28;20469;-71
2023/10/08 00:42:07;;;;;;;1.90;0.50;;;;;;;12.16;100.00;101347.03;5076767;28;20846;-69
2023/10/08 00:44:41;;;;;;;1.80;0.40;;;;;;;12.11;100.00;101344.41;5077109;28;20836;-69
2023/10/08 00:47:10;;;;;;;2.10;0.50;;;;;;;12.11;100.00;101356.06;5076593;28;20457;-69
2023/10/08 00:49:54;;;;;;;3.33;0.50;;;;;;;12.13;100.00;101358.50;5076737;28;20481;-70
2023/10/08 00:52:29;;;;;;;1.80;0.40;;;;;;;12.08;100.00;101359.34;5076828;28;20425;-70
2023/10/08 00:55:08;;;;;;;2.83;0.70;;;;;;;12.12;100.00;101363.09;5076704;28;20417;-70
2023/10/08 00:57:36;;;;;;;1.90;0.50;;;;;;;12.20;100.00;101366.28;5076412;28;20460;-70
2023/10/08 01:00:15;;;;;;;1.90;0.43;;;;;;;12.23;100.00;101363.78;5076524;28;20836;-70
2023/10/08 01:02:46;;;;;;;2.40;0.60;;;;;;;12.27;100.00;101350.44;5076848;28;20436;-70
2023/10/08 01:05:18;;;;;;;1.80;0.40;;;;;;;12.21;100.00;101355.13;5076817;28;20418;-70
2023/10/08 01:07:47;;;;;;;2.23;0.60;;;;;;;12.16;100.00;101347.03;5076324;28;20552;-70
2023/10/08 01:10:19;;;;;;;2.40;0.60;;;;;;;12.11;100.00;101350.63;5075934;28;20542;-70
2023/10/08 01:12:54;;;;;;;2.10;0.60;;;;;;;11.99;100.00;101368.44;5075953;28;20916;-70
2023/10/08 01:15:28;;;;;;;2.10;0.57;;;;;;;12.01;100.00;101367.06;5076209;28;20436;-70
2023/10/08 01:18:00;;;;;;;2.50;0.73;;;;;;;12.02;100.00;101378.72;5076139;28;20461;-70
2023/10/08 01:20:34;;;;;;;3.10;1.00;;;;;;;12.05;100.00;101389.81;5076132;28;20922;-70
2023/10/08 01:23:05;;;;;;;2.20;0.63;;;;;;;12.03;100.00;101380.34;5076075;28;20786;-70
2023/10/08 01:25:31;;;;;;;2.00;0.63;;;;;;;11.99;100.00;101385.53;5075723;28;20800;-70
2023/10/08 01:28:00;;;;;;;2.77;1.00;;;;;;;11.92;100.00;101378.88;5075706;28;21026;-70
2023/10/08 01:30:34;;;;;;;2.00;0.60;;;;;;;11.93;100.00;101385.91;5076210;28;20477;-70
2023/10/08 01:33:03;;;;;;;2.33;0.70;;;;;;;11.91;100.00;101398.94;5076251;28;20433;-70
2023/10/08 01:35:31;;;;;;;3.97;1.20;;;;;;;12.00;100.00;101395.31;5076052;28;20448;-69
2023/10/08 01:38:00;;;;;;;7.20;1.40;;;;;;;11.97;100.00;101404.03;5075708;28;20461;-69
2023/10/08 01:40:29;;;;;;;3.13;0.90;;;;;;;11.94;100.00;101404.63;5076303;28;20441;-69
2023/10/08 01:42:59;;;;;;;2.10;0.70;;;;;;;11.97;100.00;101403.25;5075649;28;20446;-69
2023/10/08 01:45:26;;;;;;;2.20;0.90;;;;;;;11.95;100.00;101400.00;5076088;28;20445;-69
2023/10/08 01:47:54;;;;;;;2.97;0.70;;;;;;;11.94;100.00;101404.63;5075562;28;20540;-69
2023/10/08 01:50:22;;;;;;;2.70;0.70;;;;;;;11.93;100.00;101413.88;5075831;28;20846;-69
2023/10/08 01:52:48;;;;;;;3.37;1.23;;;;;;;11.90;100.00;101430.72;5075225;28;20451;-69
2023/10/08 01:55:19;;;;;;;2.43;0.70;;;;;;;11.92;100.00;101422.31;5075958;28;20522;-69
2023/10/08 01:57:47;;;;;;;3.87;0.97;;;;;;;11.98;100.00;101432.00;5075658;28;20552;-69
2023/10/08 02:00:18;;;;;;;3.57;0.90;;;;;;;11.95;100.00;101444.22;5075592;28;20457;-69
2023/10/08 02:02:45;;;;;;;3.70;1.17;;;;;;;11.94;100.00;101445.34;5075336;28;20432;-69
2023/10/08 02:05:14;;;;;;;2.87;1.17;;;;;;;12.01;100.00;101443.09;5075489;28;20532;-69
2023/10/08 02:07:41;;;;;;;2.43;0.73;;;;;;;12.01;100.00;101436.88;5075350;28;20473;-69
2023/10/08 02:10:10;;;;;;;2.63;0.97;;;;;;;11.94;100.00;101441.81;5075055;28;20491;-69
2023/10/08 02:12:37;;;;;;;2.43;0.77;;;;;;;11.95;100.00;101443.44;5075390;28;20821;-70
2023/10/08 02:15:07;;;;;;;2.67;0.70;;;;;;;11.99;100.00;101444.47;5075112;28;20524;-71
2023/10/08 02:17:34;;;;;;;2.27;0.70;;;;;;;11.97;100.00;101458.34;5075264;28;20461;-71
2023/10/08 02:20:04;;;;;;;2.40;0.90;;;;;;;11.98;100.00;101448.28;5074950;28;20441;-71
2023/10/08 02:22:31;;;;;;;2.00;0.70;;;;;;;11.93;100.00;101457.31;5074646;28;20922;-70
2023/10/08 02:25:01;;;;;;;2.00;0.63;;;;;;;11.96;100.00;101466.78;5075034;28;20847;-70
2023/10/08 02:27:27;;;;;;;1.90;0.60;;;;;;;11.98;100.00;101489.03;5075154;28;20461;-70
2023/10/08 02:29:55;;;;;;;2.80;0.83;;;;;;;11.97;100.00;101496.38;5075019;28;20575;-70
2023/10/08 02:32:23;;;;;;;2.17;0.70;;;;;;;11.96;100.00;101502.91;5075433;28;20444;-70
2023/10/08 02:34:50;;;;;;;2.20;0.80;;;;;;;11.98;100.00;101499.88;5074654;28;20434;-70
2023/10/08 02:37:17;;;;;;;2.20;0.80;;;;;;;11.94;100.00;101486.06;5074624;28;20528;-70
2023/10/08 02:39:44;;;;;;;3.10;0.90;;;;;;;11.94;100.00;101480.63;5074859;28;20529;-70
2023/10/08 02:42:14;;;;;;;2.57;0.60;;;;;;;11.93;100.00;101499.94;5074533;28;20441;-70
2023/10/08 02:44:41;;;;;;;2.33;0.70;;;;;;;11.91;100.00;101488.53;5074820;28;20511;-70
2023/10/08 02:47:11;;;;;;;2.00;0.60;;;;;;;11.88;100.00;101491.84;5074533;28;20511;-70
2023/10/08 02:49:41;;;;;;;3.07;1.37;;;;;;;11.88;100.00;101494.56;5073985;28;21002;-70
2023/10/08 02:52:08;;;;;;;2.33;0.80;;;;;;;11.92;100.00;101488.28;5074319;28;20442;-70
2023/10/08 02:54:37;;;;;;;2.20;0.70;;;;;;;11.85;100.00;101495.94;5074625;28;20869;-70
2023/10/08 02:57:09;;;;;;;2.37;0.90;;;;;;;11.89;100.00;101479.88;5073642;28;20458;-70
2023/10/08 02:59:40;;;;;;;1.90;0.43;;;;;;;11.86;100.00;101490.25;5074585;28;20482;-70
2023/10/08 03:02:13;;;;;;;2.63;0.80;;;;;;;11.93;100.00;101483.66;5074322;28;20410;-70
2023/10/08 03:04:45;;;;;;;2.50;0.80;;;;;;;11.97;100.00;101495.56;5073797;28;20468;-70
2023/10/08 03:07:21;;;;;;;2.73;0.70;;;;;;;11.96;100.00;101496.66;5073767;28;20487;-70
2023/10/08 03:09:49;;;;;;;1.87;0.50;;;;;;;11.94;100.00;101485.25;5074022;28;20471;-70
2023/10/08 03:12:17;;;;;;;5.90;1.13;;;;;;;11.92;100.00;101496.41;5073962;28;20465;-70
2023/10/08 03:14:57;;;;;;;2.67;0.80;;;;;;;11.93;100.00;101489.88;5073904;28;20487;-70
2023/10/08 03:17:28;;;;;;;2.50;0.77;;;;;;;11.92;100.00;101495.63;5073523;28;20972;-70
2023/10/08 03:20:01;;;;;;;2.50;0.77;;;;;;;11.91;100.00;101504.84;5074213;28;20441;-70
2023/10/08 03:22:33;;;;;;;2.70;0.90;;;;;;;11.94;100.00;101509.69;5073853;28;20500;-70
2023/10/08 03:25:14;;;;;;;2.97;0.80;;;;;;;11.90;100.00;101509.47;5073821;28;20460;-70
2023/10/08 03:27:41;;;;;;;3.07;0.87;;;;;;;11.89;100.00;101496.97;5073402;28;20544;-70
2023/10/08 03:30:14;;;;;;;3.07;1.03;;;;;;;11.83;100.00;101509.81;5073784;28;20492;-70
2023/10/08 03:32:42;;;;;;;4.00;1.10;;;;;;;11.79;100.00;101530.44;5074416;28;20508;-70
2023/10/08 03:35:11;;;;;;;2.13;0.57;;;;;;;11.83;100.00;101534.25;5073508;28;20445;-70
2023/10/08 03:37:41;;;;;;;2.40;0.60;;;;;;;11.92;100.00;101536.34;5073523;28;20519;-70
2023/10/08 03:40:25;;;;;;;7.10;1.30;;;;;;;11.82;100.00;101532.63;5073634;28;20433;-70
2023/10/08 03:42:55;;;;;;;3.23;1.43;;;;;;;11.79;100.00;101537.78;5073277;28;20886;-70
2023/10/08 03:48:10;;;;;;;2.30;0.70;;;;;;;11.84;100.00;101568.44;5073033;28;20461;-70
2023/10/08 03:50:41;;;;;;;2.80;1.03;;;;;;;11.88;100.00;101570.59;5073505;28;20552;-70
2023/10/08 03:53:11;;;;;;;2.33;0.87;;;;;;;11.92;100.00;101577.88;5073563;28;20425;-70
2023/10/08 03:55:40;;;;;;;2.40;0.70;;;;;;;11.96;100.00;101570.78;5073439;28;20441;-70
2023/10/08 03:58:11;;;;;;;2.70;1.00;;;;;;;11.95;100.00;101580.00;5073238;28;20448;-71
2023/10/08 04:00:41;;;;;;;2.43;0.93;;;;;;;11.93;100.00;101586.81;5073440;28;20426;-71
2023/10/08 04:03:11;;;;;;;2.00;0.70;;;;;;;11.94;100.00;101597.38;5073373;28;20445;-71
2023/10/08 04:05:59;;;;;;;2.30;0.90;;;;;;;11.92;100.00;101593.34;5073317;28;20532;-71
2023/10/08 04:08:42;;;;;;;13.23;1.27;;;;;;;11.97;100.00;101596.00;5073153;28;20457;-71
2023/10/08 04:11:30;;;;;;;5.00;1.57;;;;;;;11.97;100.00;101590.59;5077418;28;20493;-71
2023/10/08 04:13:59;;;;;;;2.33;0.70;;;;;;;11.98;100.00;101589.47;5077081;28;20421;-71
2023/10/08 04:16:27;;;;;;;2.17;0.57;;;;;;;11.97;100.00;101604.97;5077247;28;20460;-71
2023/10/08 04:18:55;;;;;;;2.27;0.63;;;;;;;11.95;100.00;101611.78;5077523;28;20437;-71
2023/10/08 04:21:27;;;;;;;2.40;0.70;;;;;;;11.99;100.00;101615.53;5077183;28;20445;-71
2023/10/08 04:23:54;;;;;;;2.20;0.63;;;;;;;12.00;100.00;101619.91;5077182;28;20425;-71
2023/10/08 04:26:23;;;;;;;4.30;1.10;;;;;;;11.97;100.00;101625.88;5077434;28;20499;-71
2023/10/08 04:28:54;;;;;;;3.13;1.27;;;;;;;11.98;100.00;101630.22;5077449;28;20446;-71
2023/10/08 04:31:24;;;;;;;2.90;1.10;;;;;;;11.95;100.00;101647.88;5077066;28;20552;-71
2023/10/08 04:33:52;;;;;;;2.00;0.60;;;;;;;11.89;100.00;101664.50;5077396;28;20432;-71
2023/10/08 04:36:19;;;;;;;2.10;0.70;;;;;;;11.90;100.00;101666.13;5076917;28;20543;-70
2023/10/08 04:38:48;;;;;;;3.13;1.13;;;;;;;11.89;100.00;101654.44;5077203;28;20441;-70
2023/10/08 04:41:19;;;;;;;2.80;0.80;;;;;;;11.90;100.00;101641.69;5076818;28;20436;-70
2023/10/08 04:43:49;;;;;;;4.00;1.40;;;;;;;11.84;100.00;101652.59;5077527;28;20430;-70
2023/10/08 04:46:34;;;;;;;4.17;0.80;;;;;;;11.85;100.00;101651.47;5076636;28;20960;-70
2023/10/08 04:49:05;;;;;;;2.43;0.87;;;;;;;11.81;100.00;101638.72;5076401;28;20789;-70
2023/10/08 04:51:36;;;;;;;2.60;0.83;;;;;;;11.79;100.00;101643.66;5076596;28;20557;-70
2023/10/08 04:54:05;;;;;;;3.37;0.90;;;;;;;11.75;100.00;101640.69;5076732;28;20473;-70
2023/10/08 04:56:33;;;;;;;3.33;0.70;;;;;;;11.79;100.00;101638.22;5076444;28;20544;-70
2023/10/08 04:58:59;;;;;;;2.17;0.67;;;;;;;11.81;100.00;101658.53;5076517;28;20531;-71
2023/10/08 05:01:38;;;;;;;2.00;0.50;;;;;;;11.82;100.00;101673.78;5076120;28;20802;-71
2023/10/08 05:04:23;;;;;;;2.00;0.63;;;;;;;11.78;100.00;101683.56;5076287;28;20770;-71
2023/10/08 05:07:00;;;;;;;2.90;0.90;;;;;;;11.67;100.00;101690.13;5076068;28;20563;-71
2023/10/08 05:09:45;;;;;;;7.07;1.17;;;;;;;11.62;100.00;101698.31;5076241;28;20790;-71
2023/10/08 05:12:28;;;;;;;2.47;0.80;;;;;;;11.54;100.00;101701.59;5076319;28;20481;-71
2023/10/08 05:15:21;;;;;;;2.10;0.60;;;;;;;11.48;100.00;101700.00;5075888;28;20959;-71
2023/10/08 05:17:56;;;;;;;2.37;0.80;;;;;;;11.48;100.00;101697.31;5076039;28;20480;-71
2023/10/08 05:20:40;;;;;;;2.40;0.90;;;;;;;11.49;100.00;101717.91;5075527;28;20430;-71
2023/10/08 05:23:20;;;;;;;2.70;0.97;;;;;;;11.45;100.00;101708.72;5075665;28;20796;-71
2023/10/08 05:26:08;;;;;;;2.33;0.73;;;;;;;11.45;100.00;101720.38;5075915;28;20430;-71
2023/10/08 05:28:36;;;;;;;2.53;1.07;;;;;;;11.46;100.00;101723.88;5075677;28;20414;-71
2023/10/08 05:31:31;;;;;;;2.40;0.80;;;;;;;11.42;100.00;101714.69;5076192;28;20481;-71
2023/10/08 05:34:14;;;;;;;2.30;0.80;;;;;;;11.36;100.00;101725.56;5076240;28;20432;-71
2023/10/08 05:37:00;;;;;;;3.00;0.80;;;;;;;11.33;100.00;101726.13;5075736;28;20493;-71
2023/10/08 05:39:32;;;;;;;4.43;1.30;;;;;;;11.28;100.00;101742.41;5076076;28;20417;-72
2023/10/08 05:42:13;;;;;;;4.20;1.20;;;;;;;11.28;100.00;101753.25;5075834;28;20515;-71
2023/10/08 05:44:39;;;;;;;2.70;0.93;;;;;;;11.22;100.00;101740.81;5075724;28;20501;-71
2023/10/08 05:47:28;;;;;;;2.30;0.60;;;;;;;11.21;100.00;101744.63;5075337;28;20551;-71
2023/10/08 05:50:28;;;;;;;2.47;0.83;;;;;;;11.24;100.00;101738.63;5075235;28;20985;-71
2023/10/08 05:53:01;;;;;;;2.93;0.93;;;;;;;11.19;100.00;101749.50;5075184;28;20449;-71
2023/10/08 05:55:34;;;;;;;2.10;0.73;;;;;;;11.21;100.00;101752.75;5075581;28;20422;-71
2023/10/08 05:58:24;;;;;;;2.50;1.20;;;;;;;11.23;100.00;101769.53;5075717;28;20465;-71
2023/10/08 06:03:36;;;;;;;2.63;1.00;;;;;;;11.37;100.00;101786.03;5075308;28;20442;-73
2023/10/08 06:06:25;;;;;;;3.07;0.97;;;;;;;11.34;100.00;101803.69;5074919;28;20796;-73
2023/10/08 06:09:21;;;;;;;3.27;1.07;;;;;;;11.41;100.00;101802.59;5072011;22;20494;-76
2023/10/08 06:12:07;;;;;;;3.17;1.57;;;;;;;11.41;100.00;101816.16;5054977;28;20989;-76
2023/10/08 06:15:06;;;;;;;3.70;1.17;;;;;;;11.43;100.00;101816.69;5055536;28;20426;-77
2023/10/08 06:17:55;;;;;;;3.97;1.00;;;;;;;11.46;100.00;101838.66;5054970;28;20544;-76
2023/10/08 06:20:25;;;;;;;2.93;1.20;;;;;;;11.48;100.00;101857.38;5055361;28;20419;-76
2023/10/08 06:22:59;;;;;;;4.23;1.30;;;;;;;11.53;100.00;101849.22;5054988;28;20481;-76
2023/10/08 06:25:27;;;;;;;4.00;1.27;;;;;;;11.57;100.00;101842.16;5055046;28;20415;-76
2023/10/08 06:27:55;;;;;;;2.90;1.10;;;;;;;11.58;100.00;101844.59;5055605;28;20498;-75
2023/10/08 06:30:24;;;;;;;4.20;1.30;;;;;;;11.63;100.00;101843.75;5054979;28;20493;-74
2023/10/08 06:32:53;;;;;;;2.47;1.07;;;;;;;11.64;100.00;101853.50;5054116;28;20807;-72
2023/10/08 06:35:24;;;;;;;2.67;0.97;;;;;;;11.58;100.00;101854.63;5054969;28;20434;-72
2023/10/08 06:37:54;;;;;;;5.07;0.90;;;;;;;11.60;100.00;101858.72;5054546;28;20466;-75
2023/10/08 06:43:12;;;;;;;2.63;0.90;;;;;;;11.64;100.00;101869.78;5054660;28;20437;-75
2023/10/08 06:45:41;;;;;;;2.53;1.13;;;;;;;11.67;100.00;101871.97;5054502;28;20431;-74
2023/10/08 06:48:08;;;;;;;2.73;0.93;;;;;;;11.69;100.00;101875.22;5054808;28;20441;-74
2023/10/08 06:50:35;;;;;;;2.40;0.90;;;;;;;11.71;100.00;101891.22;5053936;28;20833;-75
2023/10/08 06:53:06;;;;;;;2.03;0.63;;;;;;;11.67;100.00;101898.31;5054471;28;20450;-74
2023/10/08 06:55:33;;;;;;;2.77;0.90;;;;;;;11.66;100.00;101889.34;5054295;28;20422;-74
2023/10/08 06:58:05;;;;;;;1.90;0.53;;;;;;;11.72;100.00;101899.09;5054193;28;20466;-74
2023/10/08 07:00:39;;;;;;;2.37;0.70;;;;;;;11.76;100.00;101904.78;5054368;28;20518;-74
2023/10/08 07:03:10;;;;;;;2.73;0.87;;;;;;;11.77;100.00;101903.69;5054231;28;20457;-74
2023/10/08 07:05:40;;;;;;;2.83;1.00;;;;;;;11.79;100.00;101904.25;5054384;28;20836;-74
2023/10/08 07:08:08;;;;;;;2.20;0.60;;;;;;;11.76;100.00;101921.88;5053918;28;20460;-74
2023/10/08 07:10:35;;;;;;;2.00;0.60;;;;;;;11.72;100.00;101918.09;5054013;28;20486;-74
2023/10/08 07:13:03;;;;;;;2.50;0.90;;;;;;;11.68;100.00;101922.44;5054312;28;20448;-74
2023/10/08 07:15:31;;;;;;;2.50;0.67;;;;;;;11.74;100.00;101936.84;5053941;28;20446;-74
2023/10/08 07:18:07;;;;;;;2.03;0.70;;;;;;;11.69;100.00;101940.38;5053877;28;20994;-74
2023/10/08 07:20:39;;;;;;;2.30;0.80;;;;;;;11.77;100.00;101937.06;5053927;28;20540;-74
2023/10/08 07:23:18;;;;;;;2.20;0.77;;;;;;;11.75;100.00;101943.88;5054463;28;20437;-75
2023/10/08 07:25:51;;;;;;;2.30;0.83;;;;;;;11.61;100.00;101946.34;5053494;28;20472;-74
2023/10/08 07:28:19;;;;;;;2.57;0.57;;;;;;;11.57;100.00;101951.50;5053520;28;20427;-74
2023/10/08 07:30:46;;;;;;;2.23;0.80;;;;;;;11.63;100.00;101963.16;5053634;28;20517;-74
2023/10/08 07:33:17;;;;;;;2.10;0.60;;;;;;;11.63;100.00;101949.59;5053659;28;20517;-74
2023/10/08 07:35:56;;;;;;;2.20;0.53;;;;;;;11.61;100.00;101958.03;5053632;28;20438;-75
2023/10/08 07:38:24;;;;;;;2.40;0.87;;;;;;;11.56;100.00;101962.66;5053324;28;20488;-75
2023/10/08 07:40:54;;;;;;;2.00;0.50;;;;;;;11.53;100.00;101963.19;5053266;28;20966;-75
2023/10/08 07:43:22;;;;;;;2.20;0.80;;;;;;;11.52;100.00;101967.00;5053460;28;20885;-77
2023/10/08 07:45:49;;;;;;;2.13;0.73;;;;;;;11.61;100.00;101974.31;5054078;28;20478;-75
2023/10/08 07:48:15;;;;;;;2.30;0.77;;;;;;;11.72;100.00;101977.00;5053866;28;20461;-75
2023/10/08 07:50:45;;;;;;;2.10;0.60;;;;;;;11.78;100.00;101974.00;5053227;28;20490;-75
2023/10/08 07:53:17;;;;;;;3.30;0.90;;;;;;;11.67;100.00;101974.28;5053114;28;20942;-75
2023/10/08 07:55:48;;;;;;;4.00;0.80;;;;;;;11.67;100.00;101980.53;5053303;28;20427;-74
2023/10/08 07:58:16;;;;;;;2.13;0.60;;;;;;;11.67;100.00;101991.41;5053400;28;20438;-74
2023/10/08 08:00:51;;;;;;;2.13;0.50;;;;;;;11.72;100.00;101987.84;5053878;28;20541;-74
2023/10/08 08:03:19;;;;;;;2.17;0.73;;;;;;;11.74;100.00;101986.50;5053102;28;20976;-74
2023/10/08 08:05:46;;;;;;;2.10;0.50;;;;;;;11.75;100.00;101987.31;5053646;28;20504;-74
2023/10/08 08:08:17;;;;;;;1.90;0.50;;;;;;;11.79;100.00;101993.81;5053046;28;20457;-74
2023/10/08 08:10:45;;;;;;;1.80;0.40;;;;;;;11.83;100.00;101990.31;5053328;28;20883;-74
2023/10/08 08:13:13;;;;;;;2.47;0.67;;;;;;;11.85;100.00;101995.47;5053355;28;20828;-74
2023/10/08 08:15:42;;;;;;;2.00;0.57;;;;;;;11.84;100.00;102002.78;5053142;28;20496;-74
2023/10/08 08:18:18;;;;;;;2.40;0.80;;;;;;;11.88;100.00;102002.25;5052955;28;20438;-74
2023/10/08 08:20:47;;;;;;;1.80;0.43;;;;;;;11.94;100.00;101993.00;5053166;28;20910;-74
2023/10/08 08:23:16;;;;;;;1.90;0.50;;;;;;;11.92;100.00;102000.63;5053329;28;20457;-76
2023/10/08 08:26:05;;;;;;;2.67;0.70;;;;;;;11.90;100.00;102005.50;5053274;28;20472;-74
2023/10/08 08:28:32;;;;;;;4.03;0.53;;;;;;;11.92;100.00;102014.19;5053429;28;20497;-74
2023/10/08 08:31:04;;;;;;;2.20;0.70;;;;;;;11.90;100.00;102010.94;5053021;28;20486;-74
2023/10/08 08:33:52;;;;;;;1.80;0.40;;;;;;;11.88;100.00;102027.50;5053127;28;20431;-74
2023/10/08 08:36:18;;;;;;;2.70;0.70;;;;;;;11.90;100.00;102021.78;5052909;28;20462;-74
2023/10/08 08:38:47;;;;;;;1.80;0.40;;;;;;;11.92;100.00;102025.88;5053051;28;20446;-74
2023/10/08 08:41:17;;;;;;;1.93;0.47;;;;;;;11.96;100.00;102021.53;5053298;28;20450;-74
2023/10/08 08:43:46;;;;;;;2.67;0.70;;;;;;;11.97;100.00;102031.28;5053348;28;20419;-74
2023/10/08 08:46:13;;;;;;;1.90;0.50;;;;;;;11.98;100.00;102029.38;5052544;28;20847;-74
2023/10/08 08:48:41;;;;;;;2.20;0.70;;;;;;;11.82;100.00;102043.00;5052590;28;20442;-74
2023/10/08 08:51:09;;;;;;;4.47;0.80;;;;;;;11.90;100.00;102040.81;5052837;28;20576;-74
2023/10/08 08:53:36;;;;;;;2.00;0.60;;;;;;;11.96;100.00;102034.28;5052809;28;20460;-74
2023/10/08 08:56:09;;;;;;;2.13;0.80;;;;;;;12.07;100.00;102039.41;5054971;28;20465;-74
2023/10/08 08:58:36;;;;;;;2.20;0.57;;;;;;;12.10;100.00;102043.50;5056907;28;20427;-74
2023/10/08 09:01:05;;;;;;;4.93;0.53;;;;;;;12.11;100.00;102050.53;5056212;28;20468;-74
2023/10/08 09:03:31;;;;;;;2.60;1.03;;;;;;;12.16;100.00;102045.09;5056786;28;20537;-74
2023/10/08 09:05:58;;;;;;;1.90;0.50;;;;;;;12.19;100.00;102052.69;5056684;28;20450;-74
2023/10/08 09:08:29;;;;;;;2.20;0.50;;;;;;;12.22;100.00;102054.88;5056255;28;20460;-74
2023/10/08 09:11:00;;;;;;;2.30;0.60;;;;;;;12.26;100.00;102061.38;5056227;28;20488;-74
2023/10/08 09:13:29;;;;;;;1.90;0.40;;;;;;;12.24;100.00;102052.69;5056612;28;20448;-76
2023/10/08 09:16:04;;;;;;;7.00;0.90;;;;;;;12.27;100.00;102059.47;5056465;28;20433;-76
2023/10/08 09:18:32;;;;;;;1.80;0.40;;;;;;;12.29;100.00;102065.44;5056000;28;20938;-75
2023/10/08 09:21:10;;;;;;;2.40;0.60;;;;;;;12.27;100.00;102068.44;5056296;28;20478;-75
2023/10/08 09:23:42;;;;;;;4.93;0.77;;;;;;;12.20;100.00;102077.97;5056942;28;20430;-75
2023/10/08 09:26:09;;;;;;;2.00;0.43;;;;;;;12.26;100.00;102069.53;5055991;28;20458;-74
2023/10/08 09:28:39;;;;;;;2.30;0.70;;;;;;;12.32;100.00;102067.63;5056108;28;20529;-74
2023/10/08 09:31:06;;;;;;;2.77;0.50;;;;;;;12.36;100.00;102076.84;5055801;28;20480;-74
2023/10/08 09:33:33;;;;;;;1.80;0.40;;;;;;;12.41;100.00;102073.28;5055885;28;20452;-75
2023/10/08 09:36:02;;;;;;;2.00;0.60;;;;;;;12.47;100.00;102074.91;5055824;28;20520;-73
2023/10/08 09:38:31;;;;;;;2.00;0.60;;;;;;;12.40;97.82;102068.97;5056130;28;20491;-73
2023/10/08 09:40:59;;;;;;;1.80;0.40;;;;;;;12.49;99.95;102070.81;5056451;28;20442;-73
2023/10/08 09:43:26;;;;;;;2.10;0.50;;;;;;;12.57;100.00;102074.84;5055656;28;20431;-73
2023/10/08 09:45:59;;;;;;;1.90;0.50;;;;;;;12.57;100.00;102075.69;5056213;28;20430;-73
2023/10/08 09:48:30;;;;;;;2.00;0.60;;;;;;;12.42;97.30;102085.78;5055385;28;20422;-72
2023/10/08 09:50:59;;;;;;;1.80;0.37;;;;;;;12.38;94.08;102089.03;5055490;28;20484;-72
2023/10/08 09:53:35;;;;;;;1.97;0.40;;;;;;;12.46;93.45;102095.00;5055516;28;20438;-73
2023/10/08 09:56:07;;;;;;;2.93;0.67;;;;;;;12.54;91.54;102089.81;5055098;28;20462;-72
2023/10/08 09:58:35;;;;;;;2.27;0.60;;;;;;;12.61;89.83;102103.09;5055760;28;20446;-72
2023/10/08 10:01:04;;;;;;;1.73;0.40;;;;;;;12.67;86.77;102101.22;5055076;28;20434;-72
2023/10/08 10:03:31;;;;;;;2.00;0.50;;;;;;;12.69;79.19;102101.72;5055293;28;20453;-72
2023/10/08 10:06:00;;;;;;;4.27;0.67;;;;;;;12.81;80.04;102108.47;5055152;28;20517;-72
2023/10/08 10:08:28;;;;;;;2.30;0.63;;;;;;;12.86;78.86;102110.38;5055460;28;20454;-72
2023/10/08 10:10:59;;;;;;;1.90;0.50;;;;;;;12.94;83.83;102111.69;5054809;28;20480;-72
2023/10/08 10:13:29;;;;;;;1.93;0.50;;;;;;;12.97;86.58;102101.06;5055453;28;20509;-72
2023/10/08 10:15:57;;;;;;;2.60;0.70;;;;;;;13.00;78.77;102105.13;5054965;28;20449;-72
2023/10/08 10:18:30;;;;;;;1.80;0.40;;;;;;;13.09;77.52;102098.81;5054741;28;20449;-72
2023/10/08 10:21:01;;;;;;;1.80;0.40;;;;;;;13.10;80.72;102103.19;5055309;28;20423;-72
2023/10/08 10:23:42;;;;;;;1.90;0.40;;;;;;;13.10;83.06;102116.78;5055594;28;20415;-72
2023/10/08 10:26:24;;;;;;;2.30;0.70;;;;;;;13.13;80.71;102115.41;5054815;28;20458;-72
2023/10/08 10:29:21;;;;;;;2.40;0.47;;;;;;;13.21;77.28;102127.59;5055295;28;20426;-72
2023/10/08 10:31:50;;;;;;;1.90;0.47;;;;;;;13.42;69.52;102125.63;5055014;28;20564;-72
2023/10/08 10:34:20;;;;;;;2.40;0.53;;;;;;;13.44;67.06;102126.94;5054687;28;20480;-72
2023/10/08 10:36:49;;;;;;;1.70;0.40;;;;;;;13.44;66.20;102121.50;5054951;28;20494;-72
2023/10/08 10:39:17;;;;;;;3.00;0.53;;;;;;;13.49;63.57;102124.19;5055254;28;20787;-72
2023/10/08 10:41:45;;;;;;;1.70;0.30;;;;;;;13.60;61.63;102114.06;5054769;28;20434;-72
2023/10/08 10:44:13;;;;;;;1.90;0.50;;;;;;;13.69;65.89;102114.25;5054182;28;20944;-72
2023/10/08 10:46:42;;;;;;;1.90;0.60;;;;;;;13.85;66.84;102119.28;5054097;28;20554;-72
2023/10/08 10:49:18;;;;;;;1.70;0.30;;;;;;;14.04;65.29;102126.78;5054372;28;20447;-72
2023/10/08 10:51:48;;;;;;;2.33;0.47;;;;;;;14.22;60.62;102131.50;5054655;28;20820;-72
2023/10/08 10:54:20;;;;;;;1.90;0.40;;;;;;;14.41;62.13;102142.47;5054754;28;20437;-72
2023/10/08 10:56:47;;;;;;;1.80;0.50;;;;;;;14.61;62.30;102144.22;5053911;28;20470;-72
2023/10/08 10:59:19;;;;;;;2.07;0.50;;;;;;;14.80;64.68;102130.63;5054448;28;20446;-72
2023/10/08 11:01:48;;;;;;;2.10;0.43;;;;;;;14.98;62.76;102131.78;5054929;28;20426;-72
2023/10/08 11:04:19;;;;;;;1.80;0.40;;;;;;;15.29;60.58;102138.44;5054507;28;20490;-72
2023/10/08 11:06:54;;;;;;;2.37;0.53;;;;;;;16.06;57.70;102129.06;5053646;28;20980;-72
2023/10/08 11:09:35;;;;;;;1.90;0.40;;;;;;;17.21;54.93;102131.75;5053817;28;20419;-72
2023/10/08 11:12:10;;;;;;;2.43;0.40;;;;;;;18.34;54.54;102133.38;5054014;28;20505;-72
2023/10/08 11:14:41;;;;;;;1.80;0.40;;;;;;;19.00;46.89;102136.22;5053925;28;20426;-72
2023/10/08 11:17:12;;;;;;;1.80;0.40;;;;;;;19.49;48.06;102125.94;5054262;28;20462;-72
2023/10/08 11:19:38;;;;;;;2.87;0.57;;;;;;;20.17;45.87;102139.91;5053199;28;20914;-72
2023/10/08 11:22:06;;;;;;;1.80;0.40;;;;;;;20.93;42.28;102133.63;5053731;28;20438;-72
2023/10/08 11:24:34;;;;;;;1.90;0.40;;;;;;;20.82;41.47;102133.22;5053789;28;20439;-73
2023/10/08 11:27:15;;;;;;;1.70;0.40;;;;;;;21.68;42.64;102130.97;5053907;28;20473;-73
2023/10/08 11:29:43;;;;;;;1.70;0.40;;;;;;;22.69;40.48;102127.72;5054140;28;20445;-73
2023/10/08 11:32:12;;;;;;;1.70;0.40;;;;;;;22.76;36.43;102127.97;5053324;28;20528;-73
2023/10/08 11:34:39;;;;;;;1.70;0.40;;;;;;;23.42;40.83;102130.38;5054050;28;20773;-73
2023/10/08 11:37:19;;;;;;;2.23;0.70;;;;;;;24.15;38.99;102133.97;5053908;28;20464;-73
2023/10/08 11:39:46;;;;;;;1.70;0.40;;;;;;;24.21;35.84;102140.84;5053950;28;20462;-73
2023/10/08 11:42:39;;;;;;;1.90;0.50;;;;;;;23.97;36.38;102139.03;5053579;28;20468;-73
2023/10/08 11:45:18;;;;;;;2.00;0.53;;;;;;;23.35;35.50;102141.22;5053524;28;20791;-73
2023/10/08 11:47:45;;;;;;;1.80;0.50;;;;;;;23.29;35.67;102145.41;5053421;28;20458;-73
2023/10/08 11:50:17;;;;;;;2.00;0.50;;;;;;;23.37;35.17;102152.75;5053380;28;20448;-73